sensor_id;sensor_type;location;lat;lon;timestamp;P1;durP1;ratioP1;P2;durP2;ratioP2
18023;SDS011;9137;50.960;3.118;2022-07-03T00:00:11;1.38;;;0.60;;
18023;SDS011;9137;50.960;3.118;2022-07-03T00:02:39;1.75;;;0.75;;
18023;SDS011;9137;50.960;3.118;2022-07-03T00:05:06;1.45;;;0.90;;
18023;SDS011;9137;50.960;3.118;2022-07-03T00:07:33;1.27;;;0.60;;
18023;SDS011;9137;50.960;3.118;2022-07-03T00:10:03;1.58;;;0.65;;
18023;SDS011;9137;50.960;3.118;2022-07-03T00:12:31;2.88;;;0.82;;
18023;SDS011;9137;50.960;3.118;2022-07-03T00:14:58;2.63;;;1.00;;
18023;SDS011;9137;50.960;3.118;2022-07-03T00:17:25;1.98;;;0.63;;
18023;SDS011;9137;50.960;3.118;2022-07-03T00:19:52;2.40;;;0.80;;
18023;SDS011;9137;50.960;3.118;2022-07-03T00:22:20;1.67;;;0.70;;
18023;SDS011;9137;50.960;3.118;2022-07-03T00:24:50;1.00;;;0.60;;
18023;SDS011;9137;50.960;3.118;2022-07-03T00:27:21;0.80;;;0.57;;
18023;SDS011;9137;50.960;3.118;2022-07-03T00:29:50;1.60;;;0.70;;
18023;SDS011;9137;50.960;3.118;2022-07-03T00:32:22;1.42;;;0.70;;
18023;SDS011;9137;50.960;3.118;2022-07-03T00:34:51;2.10;;;0.80;;
18023;SDS011;9137;50.960;3.118;2022-07-03T00:37:20;0.85;;;0.57;;
18023;SDS011;9137;50.960;3.118;2022-07-03T00:39:48;3.75;;;1.17;;
18023;SDS011;9137;50.960;3.118;2022-07-03T00:42:15;1.23;;;0.68;;
18023;SDS011;9137;50.960;3.118;2022-07-03T00:44:47;1.17;;;1.10;;
18023;SDS011;9137;50.960;3.118;2022-07-03T00:47:15;1.95;;;0.90;;
18023;SDS011;9137;50.960;3.118;2022-07-03T00:49:43;1.83;;;0.85;;
18023;SDS011;9137;50.960;3.118;2022-07-03T00:52:12;1.08;;;0.80;;
18023;SDS011;9137;50.960;3.118;2022-07-03T00:54:42;2.00;;;0.77;;
18023;SDS011;9137;50.960;3.118;2022-07-03T00:57:13;1.50;;;0.90;;
18023;SDS011;9137;50.960;3.118;2022-07-03T00:59:41;1.63;;;0.80;;
18023;SDS011;9137;50.960;3.118;2022-07-03T01:02:11;1.60;;;0.90;;
18023;SDS011;9137;50.960;3.118;2022-07-03T01:04:48;1.50;;;1.03;;
18023;SDS011;9137;50.960;3.118;2022-07-03T01:07:25;1.85;;;1.10;;
18023;SDS011;9137;50.960;3.118;2022-07-03T01:10:00;2.00;;;1.10;;
18023;SDS011;9137;50.960;3.118;2022-07-03T01:12:33;2.05;;;1.00;;
18023;SDS011;9137;50.960;3.118;2022-07-03T01:15:21;1.15;;;1.00;;
18023;SDS011;9137;50.960;3.118;2022-07-03T01:17:59;1.17;;;0.93;;
18023;SDS011;9137;50.960;3.118;2022-07-03T01:20:33;1.70;;;0.88;;
18023;SDS011;9137;50.960;3.118;2022-07-03T01:23:05;2.17;;;1.13;;
18023;SDS011;9137;50.960;3.118;2022-07-03T01:25:48;1.17;;;1.08;;
18023;SDS011;9137;50.960;3.118;2022-07-03T01:28:16;2.35;;;1.42;;
18023;SDS011;9137;50.960;3.118;2022-07-03T01:30:46;1.30;;;1.20;;
18023;SDS011;9137;50.960;3.118;2022-07-03T01:33:15;2.50;;;1.25;;
18023;SDS011;9137;50.960;3.118;2022-07-03T01:35:46;2.55;;;1.63;;
18023;SDS011;9137;50.960;3.118;2022-07-03T01:38:22;1.30;;;1.15;;
18023;SDS011;9137;50.960;3.118;2022-07-03T01:40:51;2.25;;;1.15;;
18023;SDS011;9137;50.960;3.118;2022-07-03T01:43:22;1.75;;;1.27;;
18023;SDS011;9137;50.960;3.118;2022-07-03T01:45:54;2.70;;;1.45;;
18023;SDS011;9137;50.960;3.118;2022-07-03T01:48:23;1.13;;;1.00;;
18023;SDS011;9137;50.960;3.118;2022-07-03T01:50:51;3.13;;;1.40;;
18023;SDS011;9137;50.960;3.118;2022-07-03T01:53:19;2.20;;;1.30;;
18023;SDS011;9137;50.960;3.118;2022-07-03T01:55:46;2.60;;;1.52;;
18023;SDS011;9137;50.960;3.118;2022-07-03T01:58:17;1.95;;;1.23;;
18023;SDS011;9137;50.960;3.118;2022-07-03T02:00:45;1.80;;;1.27;;
18023;SDS011;9137;50.960;3.118;2022-07-03T02:03:19;2.58;;;1.40;;
18023;SDS011;9137;50.960;3.118;2022-07-03T02:05:50;1.83;;;1.40;;
18023;SDS011;9137;50.960;3.118;2022-07-03T02:08:27;2.83;;;1.48;;
18023;SDS011;9137;50.960;3.118;2022-07-03T02:11:09;2.40;;;1.90;;
18023;SDS011;9137;50.960;3.118;2022-07-03T02:13:44;2.13;;;1.90;;
18023;SDS011;9137;50.960;3.118;2022-07-03T02:16:18;2.97;;;2.00;;
18023;SDS011;9137;50.960;3.118;2022-07-03T02:18:47;2.43;;;1.70;;
18023;SDS011;9137;50.960;3.118;2022-07-03T02:21:22;2.47;;;1.92;;
18023;SDS011;9137;50.960;3.118;2022-07-03T02:23:53;3.75;;;2.10;;
18023;SDS011;9137;50.960;3.118;2022-07-03T02:26:29;3.65;;;2.25;;
18023;SDS011;9137;50.960;3.118;2022-07-03T02:29:01;2.73;;;1.97;;
18023;SDS011;9137;50.960;3.118;2022-07-03T02:31:32;3.53;;;2.20;;
18023;SDS011;9137;50.960;3.118;2022-07-03T02:34:04;3.60;;;2.40;;
18023;SDS011;9137;50.960;3.118;2022-07-03T02:36:33;3.47;;;2.30;;
18023;SDS011;9137;50.960;3.118;2022-07-03T02:39:01;3.92;;;2.63;;
18023;SDS011;9137;50.960;3.118;2022-07-03T02:41:36;2.85;;;2.33;;
18023;SDS011;9137;50.960;3.118;2022-07-03T02:44:11;2.43;;;2.23;;
18023;SDS011;9137;50.960;3.118;2022-07-03T02:47:00;5.00;;;3.20;;
18023;SDS011;9137;50.960;3.118;2022-07-03T02:49:42;3.78;;;2.72;;
18023;SDS011;9137;50.960;3.118;2022-07-03T02:52:24;4.13;;;3.03;;
18023;SDS011;9137;50.960;3.118;2022-07-03T02:54:57;3.90;;;3.27;;
18023;SDS011;9137;50.960;3.118;2022-07-03T02:57:36;4.00;;;3.20;;
18023;SDS011;9137;50.960;3.118;2022-07-03T03:00:07;4.23;;;3.83;;
18023;SDS011;9137;50.960;3.118;2022-07-03T03:02:41;3.70;;;3.20;;
18023;SDS011;9137;50.960;3.118;2022-07-03T03:05:21;4.50;;;3.97;;
18023;SDS011;9137;50.960;3.118;2022-07-03T03:07:56;4.30;;;3.78;;
18023;SDS011;9137;50.960;3.118;2022-07-03T03:10:28;5.65;;;3.75;;
18023;SDS011;9137;50.960;3.118;2022-07-03T03:12:58;5.25;;;3.95;;
18023;SDS011;9137;50.960;3.118;2022-07-03T03:15:31;5.00;;;3.93;;
18023;SDS011;9137;50.960;3.118;2022-07-03T03:18:00;4.00;;;3.60;;
18023;SDS011;9137;50.960;3.118;2022-07-03T03:20:30;5.78;;;3.70;;
18023;SDS011;9137;50.960;3.118;2022-07-03T03:22:59;4.00;;;3.45;;
18023;SDS011;9137;50.960;3.118;2022-07-03T03:25:42;5.07;;;4.28;;
18023;SDS011;9137;50.960;3.118;2022-07-03T03:28:09;4.57;;;4.15;;
18023;SDS011;9137;50.960;3.118;2022-07-03T03:30:38;6.45;;;4.45;;
18023;SDS011;9137;50.960;3.118;2022-07-03T03:33:05;5.80;;;4.18;;
18023;SDS011;9137;50.960;3.118;2022-07-03T03:35:34;6.07;;;4.18;;
18023;SDS011;9137;50.960;3.118;2022-07-03T03:38:01;5.13;;;4.63;;
18023;SDS011;9137;50.960;3.118;2022-07-03T03:40:28;4.68;;;4.28;;
18023;SDS011;9137;50.960;3.118;2022-07-03T03:42:56;5.53;;;4.18;;
18023;SDS011;9137;50.960;3.118;2022-07-03T03:45:23;5.32;;;4.00;;
18023;SDS011;9137;50.960;3.118;2022-07-03T03:47:52;5.50;;;4.78;;
18023;SDS011;9137;50.960;3.118;2022-07-03T03:50:19;6.30;;;4.72;;
18023;SDS011;9137;50.960;3.118;2022-07-03T03:52:46;4.75;;;3.97;;
18023;SDS011;9137;50.960;3.118;2022-07-03T03:55:13;6.07;;;4.63;;
18023;SDS011;9137;50.960;3.118;2022-07-03T03:57:40;5.53;;;4.60;;
18023;SDS011;9137;50.960;3.118;2022-07-03T04:00:08;5.53;;;4.03;;
18023;SDS011;9137;50.960;3.118;2022-07-03T04:02:35;4.75;;;4.00;;
18023;SDS011;9137;50.960;3.118;2022-07-03T04:05:04;7.40;;;4.13;;
18023;SDS011;9137;50.960;3.118;2022-07-03T04:07:31;5.15;;;3.80;;
18023;SDS011;9137;50.960;3.118;2022-07-03T04:09:58;4.38;;;3.80;;
18023;SDS011;9137;50.960;3.118;2022-07-03T04:12:25;5.75;;;4.10;;
18023;SDS011;9137;50.960;3.118;2022-07-03T04:14:52;4.85;;;3.85;;
18023;SDS011;9137;50.960;3.118;2022-07-03T04:17:19;4.97;;;3.70;;
18023;SDS011;9137;50.960;3.118;2022-07-03T04:19:46;4.75;;;3.67;;
18023;SDS011;9137;50.960;3.118;2022-07-03T04:22:14;5.45;;;3.97;;
18023;SDS011;9137;50.960;3.118;2022-07-03T04:24:41;7.35;;;4.32;;
18023;SDS011;9137;50.960;3.118;2022-07-03T04:27:07;6.35;;;4.03;;
18023;SDS011;9137;50.960;3.118;2022-07-03T04:29:34;5.60;;;3.88;;
18023;SDS011;9137;50.960;3.118;2022-07-03T04:32:01;6.70;;;3.97;;
18023;SDS011;9137;50.960;3.118;2022-07-03T04:34:28;5.72;;;4.15;;
18023;SDS011;9137;50.960;3.118;2022-07-03T04:36:55;5.15;;;3.72;;
18023;SDS011;9137;50.960;3.118;2022-07-03T04:39:23;5.32;;;3.40;;
18023;SDS011;9137;50.960;3.118;2022-07-03T04:41:50;4.45;;;3.90;;
18023;SDS011;9137;50.960;3.118;2022-07-03T04:44:17;4.70;;;3.70;;
18023;SDS011;9137;50.960;3.118;2022-07-03T04:46:44;5.50;;;4.15;;
18023;SDS011;9137;50.960;3.118;2022-07-03T04:49:11;6.35;;;4.25;;
18023;SDS011;9137;50.960;3.118;2022-07-03T04:51:38;5.72;;;3.75;;
18023;SDS011;9137;50.960;3.118;2022-07-03T04:54:04;5.97;;;3.95;;
18023;SDS011;9137;50.960;3.118;2022-07-03T04:56:33;7.03;;;4.20;;
18023;SDS011;9137;50.960;3.118;2022-07-03T04:59:00;7.00;;;3.90;;
18023;SDS011;9137;50.960;3.118;2022-07-03T05:01:27;4.63;;;3.60;;
18023;SDS011;9137;50.960;3.118;2022-07-03T05:03:53;5.57;;;3.75;;
18023;SDS011;9137;50.960;3.118;2022-07-03T05:06:20;6.05;;;3.50;;
18023;SDS011;9137;50.960;3.118;2022-07-03T05:08:47;5.20;;;3.70;;
18023;SDS011;9137;50.960;3.118;2022-07-03T05:11:14;4.32;;;3.40;;
18023;SDS011;9137;50.960;3.118;2022-07-03T05:13:42;5.07;;;3.43;;
18023;SDS011;9137;50.960;3.118;2022-07-03T05:16:09;5.55;;;3.85;;
18023;SDS011;9137;50.960;3.118;2022-07-03T05:18:36;5.57;;;3.95;;
18023;SDS011;9137;50.960;3.118;2022-07-03T05:21:03;6.40;;;4.05;;
18023;SDS011;9137;50.960;3.118;2022-07-03T05:23:30;5.88;;;3.60;;
18023;SDS011;9137;50.960;3.118;2022-07-03T05:25:56;5.28;;;3.53;;
18023;SDS011;9137;50.960;3.118;2022-07-03T05:28:24;3.50;;;3.17;;
18023;SDS011;9137;50.960;3.118;2022-07-03T05:30:52;4.55;;;3.60;;
18023;SDS011;9137;50.960;3.118;2022-07-03T05:33:19;4.45;;;3.63;;
18023;SDS011;9137;50.960;3.118;2022-07-03T05:35:46;4.75;;;3.58;;
18023;SDS011;9137;50.960;3.118;2022-07-03T05:38:13;4.10;;;3.42;;
18023;SDS011;9137;50.960;3.118;2022-07-03T05:41:01;5.65;;;3.83;;
18023;SDS011;9137;50.960;3.118;2022-07-03T05:43:27;7.45;;;3.78;;
18023;SDS011;9137;50.960;3.118;2022-07-03T05:45:56;4.78;;;3.88;;
18023;SDS011;9137;50.960;3.118;2022-07-03T05:48:23;5.15;;;3.95;;
18023;SDS011;9137;50.960;3.118;2022-07-03T05:50:50;5.65;;;3.95;;
18023;SDS011;9137;50.960;3.118;2022-07-03T05:53:17;5.13;;;3.80;;
18023;SDS011;9137;50.960;3.118;2022-07-03T05:55:44;4.70;;;4.18;;
18023;SDS011;9137;50.960;3.118;2022-07-03T05:58:10;5.80;;;4.20;;
18023;SDS011;9137;50.960;3.118;2022-07-03T06:00:37;6.93;;;4.35;;
18023;SDS011;9137;50.960;3.118;2022-07-03T06:03:06;7.03;;;4.25;;
18023;SDS011;9137;50.960;3.118;2022-07-03T06:05:32;4.93;;;4.00;;
18023;SDS011;9137;50.960;3.118;2022-07-03T06:08:00;6.60;;;4.15;;
18023;SDS011;9137;50.960;3.118;2022-07-03T06:10:28;6.65;;;4.53;;
18023;SDS011;9137;50.960;3.118;2022-07-03T06:12:55;5.22;;;4.15;;
18023;SDS011;9137;50.960;3.118;2022-07-03T06:15:22;5.70;;;3.85;;
18023;SDS011;9137;50.960;3.118;2022-07-03T06:17:49;7.97;;;3.78;;
18023;SDS011;9137;50.960;3.118;2022-07-03T06:20:17;5.88;;;3.80;;
18023;SDS011;9137;50.960;3.118;2022-07-03T06:22:44;4.40;;;3.58;;
18023;SDS011;9137;50.960;3.118;2022-07-03T06:25:11;6.27;;;3.83;;
18023;SDS011;9137;50.960;3.118;2022-07-03T06:27:38;6.35;;;3.95;;
18023;SDS011;9137;50.960;3.118;2022-07-03T06:30:05;8.10;;;4.20;;
18023;SDS011;9137;50.960;3.118;2022-07-03T06:32:33;7.40;;;4.50;;
18023;SDS011;9137;50.960;3.118;2022-07-03T06:35:00;6.60;;;3.92;;
18023;SDS011;9137;50.960;3.118;2022-07-03T06:37:28;6.68;;;4.18;;
18023;SDS011;9137;50.960;3.118;2022-07-03T06:39:55;5.60;;;3.95;;
18023;SDS011;9137;50.960;3.118;2022-07-03T06:42:22;6.35;;;3.70;;
18023;SDS011;9137;50.960;3.118;2022-07-03T06:44:49;4.68;;;3.28;;
18023;SDS011;9137;50.960;3.118;2022-07-03T06:47:16;7.05;;;3.85;;
18023;SDS011;9137;50.960;3.118;2022-07-03T06:49:43;6.50;;;3.58;;
18023;SDS011;9137;50.960;3.118;2022-07-03T06:52:10;5.55;;;3.05;;
18023;SDS011;9137;50.960;3.118;2022-07-03T06:54:38;6.43;;;3.50;;
18023;SDS011;9137;50.960;3.118;2022-07-03T06:57:08;4.30;;;3.53;;
18023;SDS011;9137;50.960;3.118;2022-07-03T06:59:35;6.72;;;3.50;;
18023;SDS011;9137;50.960;3.118;2022-07-03T07:02:02;4.07;;;3.10;;
18023;SDS011;9137;50.960;3.118;2022-07-03T07:04:29;4.95;;;3.33;;
18023;SDS011;9137;50.960;3.118;2022-07-03T07:06:56;4.47;;;2.83;;
18023;SDS011;9137;50.960;3.118;2022-07-03T07:09:23;6.23;;;2.87;;
18023;SDS011;9137;50.960;3.118;2022-07-03T07:11:51;4.13;;;2.70;;
18023;SDS011;9137;50.960;3.118;2022-07-03T07:14:18;4.70;;;2.60;;
18023;SDS011;9137;50.960;3.118;2022-07-03T07:16:45;6.35;;;3.28;;
18023;SDS011;9137;50.960;3.118;2022-07-03T07:19:12;4.60;;;2.75;;
18023;SDS011;9137;50.960;3.118;2022-07-03T07:21:39;4.35;;;2.58;;
18023;SDS011;9137;50.960;3.118;2022-07-03T07:24:06;4.47;;;2.38;;
18023;SDS011;9137;50.960;3.118;2022-07-03T07:26:33;4.75;;;2.10;;
18023;SDS011;9137;50.960;3.118;2022-07-03T07:29:01;4.50;;;2.97;;
18023;SDS011;9137;50.960;3.118;2022-07-03T07:31:28;3.95;;;2.58;;
18023;SDS011;9137;50.960;3.118;2022-07-03T07:33:55;2.90;;;1.40;;
18023;SDS011;9137;50.960;3.118;2022-07-03T07:36:22;4.55;;;1.30;;
18023;SDS011;9137;50.960;3.118;2022-07-03T07:38:49;1.40;;;1.00;;
18023;SDS011;9137;50.960;3.118;2022-07-03T07:41:15;2.65;;;1.00;;
18023;SDS011;9137;50.960;3.118;2022-07-03T07:43:42;3.63;;;1.27;;
18023;SDS011;9137;50.960;3.118;2022-07-03T07:46:10;3.05;;;1.23;;
18023;SDS011;9137;50.960;3.118;2022-07-03T07:48:37;3.13;;;1.38;;
18023;SDS011;9137;50.960;3.118;2022-07-03T07:51:04;3.75;;;1.23;;
18023;SDS011;9137;50.960;3.118;2022-07-03T07:53:31;2.20;;;0.98;;
18023;SDS011;9137;50.960;3.118;2022-07-03T07:55:58;1.73;;;0.95;;
18023;SDS011;9137;50.960;3.118;2022-07-03T07:58:25;3.97;;;1.80;;
18023;SDS011;9137;50.960;3.118;2022-07-03T08:00:52;3.45;;;1.30;;
18023;SDS011;9137;50.960;3.118;2022-07-03T08:03:37;2.47;;;1.07;;
18023;SDS011;9137;50.960;3.118;2022-07-03T08:06:21;2.47;;;1.00;;
18023;SDS011;9137;50.960;3.118;2022-07-03T08:08:48;1.60;;;1.00;;
18023;SDS011;9137;50.960;3.118;2022-07-03T08:11:15;2.83;;;1.10;;
18023;SDS011;9137;50.960;3.118;2022-07-03T08:13:42;2.10;;;0.70;;
18023;SDS011;9137;50.960;3.118;2022-07-03T08:16:11;3.00;;;0.73;;
18023;SDS011;9137;50.960;3.118;2022-07-03T08:18:39;3.17;;;0.77;;
18023;SDS011;9137;50.960;3.118;2022-07-03T08:21:06;2.05;;;0.80;;
18023;SDS011;9137;50.960;3.118;2022-07-03T08:23:33;1.40;;;0.70;;
18023;SDS011;9137;50.960;3.118;2022-07-03T08:25:59;3.20;;;1.50;;
18023;SDS011;9137;50.960;3.118;2022-07-03T08:28:27;1.83;;;0.70;;
18023;SDS011;9137;50.960;3.118;2022-07-03T08:30:54;3.00;;;0.90;;
18023;SDS011;9137;50.960;3.118;2022-07-03T08:33:20;2.63;;;0.75;;
18023;SDS011;9137;50.960;3.118;2022-07-03T08:35:49;2.10;;;0.77;;
18023;SDS011;9137;50.960;3.118;2022-07-03T08:38:16;2.07;;;0.80;;
18023;SDS011;9137;50.960;3.118;2022-07-03T08:40:43;1.45;;;0.60;;
18023;SDS011;9137;50.960;3.118;2022-07-03T08:43:11;0.77;;;0.40;;
18023;SDS011;9137;50.960;3.118;2022-07-03T08:45:37;1.15;;;0.40;;
18023;SDS011;9137;50.960;3.118;2022-07-03T08:48:06;0.50;;;0.40;;
18023;SDS011;9137;50.960;3.118;2022-07-03T08:50:34;1.10;;;0.50;;
18023;SDS011;9137;50.960;3.118;2022-07-03T08:53:05;2.00;;;0.70;;
18023;SDS011;9137;50.960;3.118;2022-07-03T08:55:33;1.27;;;0.45;;
18023;SDS011;9137;50.960;3.118;2022-07-03T08:58:00;0.73;;;0.40;;
18023;SDS011;9137;50.960;3.118;2022-07-03T09:00:28;1.05;;;0.57;;
18023;SDS011;9137;50.960;3.118;2022-07-03T09:02:56;2.45;;;0.70;;
18023;SDS011;9137;50.960;3.118;2022-07-03T09:05:25;0.53;;;0.40;;
18023;SDS011;9137;50.960;3.118;2022-07-03T09:07:52;1.05;;;0.40;;
18023;SDS011;9137;50.960;3.118;2022-07-03T09:10:21;0.90;;;0.32;;
18023;SDS011;9137;50.960;3.118;2022-07-03T09:12:48;0.95;;;0.32;;
18023;SDS011;9137;50.960;3.118;2022-07-03T09:15:15;2.47;;;0.63;;
18023;SDS011;9137;50.960;3.118;2022-07-03T09:17:55;2.40;;;0.77;;
18023;SDS011;9137;50.960;3.118;2022-07-03T09:20:27;0.83;;;0.30;;
18023;SDS011;9137;50.960;3.118;2022-07-03T09:22:54;0.77;;;0.47;;
18023;SDS011;9137;50.960;3.118;2022-07-03T09:25:53;0.88;;;0.50;;
18023;SDS011;9137;50.960;3.118;2022-07-03T09:28:24;1.10;;;0.43;;
18023;SDS011;9137;50.960;3.118;2022-07-03T09:31:07;0.60;;;0.30;;
18023;SDS011;9137;50.960;3.118;2022-07-03T09:33:34;1.23;;;0.55;;
18023;SDS011;9137;50.960;3.118;2022-07-03T09:36:01;1.63;;;0.30;;
18023;SDS011;9137;50.960;3.118;2022-07-03T09:38:28;1.00;;;0.50;;
18023;SDS011;9137;50.960;3.118;2022-07-03T09:40:57;1.73;;;0.60;;
18023;SDS011;9137;50.960;3.118;2022-07-03T09:43:24;2.28;;;0.43;;
18023;SDS011;9137;50.960;3.118;2022-07-03T09:45:53;0.85;;;0.40;;
18023;SDS011;9137;50.960;3.118;2022-07-03T09:48:26;1.15;;;0.40;;
18023;SDS011;9137;50.960;3.118;2022-07-03T09:51:10;1.30;;;0.40;;
18023;SDS011;9137;50.960;3.118;2022-07-03T09:53:45;0.60;;;0.30;;
18023;SDS011;9137;50.960;3.118;2022-07-03T09:56:18;1.70;;;0.63;;
18023;SDS011;9137;50.960;3.118;2022-07-03T10:01:32;2.73;;;0.50;;
18023;SDS011;9137;50.960;3.118;2022-07-03T10:04:08;1.83;;;0.50;;
18023;SDS011;9137;50.960;3.118;2022-07-03T10:06:45;3.15;;;0.60;;
18023;SDS011;9137;50.960;3.118;2022-07-03T10:09:13;1.23;;;0.43;;
18023;SDS011;9137;50.960;3.118;2022-07-03T10:11:43;1.38;;;0.50;;
18023;SDS011;9137;50.960;3.118;2022-07-03T10:14:13;1.25;;;0.40;;
18023;SDS011;9137;50.960;3.118;2022-07-03T10:16:41;0.90;;;0.20;;
18023;SDS011;9137;50.960;3.118;2022-07-03T10:19:10;1.13;;;0.30;;
18023;SDS011;9137;50.960;3.118;2022-07-03T10:21:40;2.70;;;0.50;;
18023;SDS011;9137;50.960;3.118;2022-07-03T10:24:09;0.57;;;0.38;;
18023;SDS011;9137;50.960;3.118;2022-07-03T10:26:37;0.90;;;0.30;;
18023;SDS011;9137;50.960;3.118;2022-07-03T10:29:08;0.77;;;0.40;;
18023;SDS011;9137;50.960;3.118;2022-07-03T10:31:40;1.50;;;0.50;;
18023;SDS011;9137;50.960;3.118;2022-07-03T10:34:10;1.00;;;0.47;;
18023;SDS011;9137;50.960;3.118;2022-07-03T10:36:37;0.50;;;0.40;;
18023;SDS011;9137;50.960;3.118;2022-07-03T10:39:05;1.48;;;0.50;;
18023;SDS011;9137;50.960;3.118;2022-07-03T10:41:34;0.40;;;0.30;;
18023;SDS011;9137;50.960;3.118;2022-07-03T10:44:21;0.90;;;0.40;;
18023;SDS011;9137;50.960;3.118;2022-07-03T10:47:06;1.17;;;0.32;;
18023;SDS011;9137;50.960;3.118;2022-07-03T10:50:17;0.80;;;0.30;;
18023;SDS011;9137;50.960;3.118;2022-07-03T10:52:45;1.20;;;0.30;;
18023;SDS011;9137;50.960;3.118;2022-07-03T10:55:13;2.42;;;0.73;;
18023;SDS011;9137;50.960;3.118;2022-07-03T10:57:41;1.40;;;0.30;;
18023;SDS011;9137;50.960;3.118;2022-07-03T11:00:14;1.63;;;0.30;;
18023;SDS011;9137;50.960;3.118;2022-07-03T11:02:44;1.42;;;0.30;;
18023;SDS011;9137;50.960;3.118;2022-07-03T11:05:13;0.77;;;0.30;;
18023;SDS011;9137;50.960;3.118;2022-07-03T11:08:04;1.67;;;0.40;;
18023;SDS011;9137;50.960;3.118;2022-07-03T11:10:42;1.25;;;0.55;;
18023;SDS011;9137;50.960;3.118;2022-07-03T11:13:10;1.38;;;0.60;;
18023;SDS011;9137;50.960;3.118;2022-07-03T11:15:44;1.55;;;0.63;;
18023;SDS011;9137;50.960;3.118;2022-07-03T11:18:15;1.20;;;0.57;;
18023;SDS011;9137;50.960;3.118;2022-07-03T11:26:45;0.47;;;0.35;;
18023;SDS011;9137;50.960;3.118;2022-07-03T11:29:24;0.90;;;0.30;;
18023;SDS011;9137;50.960;3.118;2022-07-03T11:31:54;1.60;;;0.98;;
18023;SDS011;9137;50.960;3.118;2022-07-03T11:34:21;1.30;;;0.50;;
18023;SDS011;9137;50.960;3.118;2022-07-03T11:36:48;1.80;;;0.60;;
18023;SDS011;9137;50.960;3.118;2022-07-03T11:39:15;0.70;;;0.40;;
18023;SDS011;9137;50.960;3.118;2022-07-03T11:41:46;1.55;;;0.47;;
18023;SDS011;9137;50.960;3.118;2022-07-03T11:44:17;0.63;;;0.50;;
18023;SDS011;9137;50.960;3.118;2022-07-03T11:46:47;0.45;;;0.40;;
18023;SDS011;9137;50.960;3.118;2022-07-03T11:49:18;1.10;;;0.40;;
18023;SDS011;9137;50.960;3.118;2022-07-03T11:51:54;2.08;;;0.50;;
18023;SDS011;9137;50.960;3.118;2022-07-03T11:54:24;1.95;;;0.60;;
18023;SDS011;9137;50.960;3.118;2022-07-03T11:56:52;1.80;;;0.80;;
18023;SDS011;9137;50.960;3.118;2022-07-03T11:59:19;2.10;;;0.77;;
18023;SDS011;9137;50.960;3.118;2022-07-03T12:01:46;1.48;;;0.68;;
18023;SDS011;9137;50.960;3.118;2022-07-03T12:04:14;1.42;;;0.60;;
18023;SDS011;9137;50.960;3.118;2022-07-03T12:06:44;0.80;;;0.60;;
18023;SDS011;9137;50.960;3.118;2022-07-03T12:09:18;1.50;;;0.50;;
18023;SDS011;9137;50.960;3.118;2022-07-03T12:11:56;2.33;;;0.80;;
18023;SDS011;9137;50.960;3.118;2022-07-03T12:14:39;1.10;;;0.60;;
18023;SDS011;9137;50.960;3.118;2022-07-03T12:17:08;1.23;;;0.45;;
18023;SDS011;9137;50.960;3.118;2022-07-03T12:19:36;1.00;;;0.60;;
18023;SDS011;9137;50.960;3.118;2022-07-03T12:22:05;0.77;;;0.40;;
18023;SDS011;9137;50.960;3.118;2022-07-03T12:24:32;1.65;;;0.57;;
18023;SDS011;9137;50.960;3.118;2022-07-03T12:27:01;2.38;;;0.70;;
18023;SDS011;9137;50.960;3.118;2022-07-03T12:29:30;2.10;;;0.90;;
18023;SDS011;9137;50.960;3.118;2022-07-03T12:31:58;1.15;;;0.55;;
18023;SDS011;9137;50.960;3.118;2022-07-03T12:34:25;1.60;;;0.43;;
18023;SDS011;9137;50.960;3.118;2022-07-03T12:36:56;1.07;;;0.60;;
18023;SDS011;9137;50.960;3.118;2022-07-03T12:39:26;2.67;;;0.60;;
18023;SDS011;9137;50.960;3.118;2022-07-03T12:42:13;1.45;;;0.70;;
18023;SDS011;9137;50.960;3.118;2022-07-03T12:44:54;2.80;;;0.70;;
18023;SDS011;9137;50.960;3.118;2022-07-03T12:47:24;1.73;;;0.80;;
18023;SDS011;9137;50.960;3.118;2022-07-03T12:49:56;2.20;;;0.68;;
18023;SDS011;9137;50.960;3.118;2022-07-03T12:52:24;0.75;;;0.43;;
18023;SDS011;9137;50.960;3.118;2022-07-03T12:54:52;2.50;;;0.73;;
18023;SDS011;9137;50.960;3.118;2022-07-03T12:57:19;1.30;;;0.70;;
18023;SDS011;9137;50.960;3.118;2022-07-03T13:00:06;2.15;;;0.70;;
18023;SDS011;9137;50.960;3.118;2022-07-03T13:02:35;1.42;;;0.50;;
18023;SDS011;9137;50.960;3.118;2022-07-03T13:05:13;1.85;;;0.50;;
18023;SDS011;9137;50.960;3.118;2022-07-03T13:07:42;2.45;;;0.60;;
18023;SDS011;9137;50.960;3.118;2022-07-03T13:10:11;2.00;;;0.70;;
18023;SDS011;9137;50.960;3.118;2022-07-03T13:12:46;1.83;;;0.60;;
18023;SDS011;9137;50.960;3.118;2022-07-03T13:15:15;2.37;;;0.50;;
18023;SDS011;9137;50.960;3.118;2022-07-03T13:17:57;1.73;;;0.30;;
18023;SDS011;9137;50.960;3.118;2022-07-03T13:20:26;0.80;;;0.50;;
18023;SDS011;9137;50.960;3.118;2022-07-03T13:22:54;0.85;;;0.55;;
18023;SDS011;9137;50.960;3.118;2022-07-03T13:25:24;1.85;;;0.70;;
18023;SDS011;9137;50.960;3.118;2022-07-03T13:27:51;1.20;;;0.45;;
18023;SDS011;9137;50.960;3.118;2022-07-03T13:30:18;2.10;;;0.43;;
18023;SDS011;9137;50.960;3.118;2022-07-03T13:32:45;1.58;;;0.40;;
18023;SDS011;9137;50.960;3.118;2022-07-03T13:35:12;0.80;;;0.40;;
18023;SDS011;9137;50.960;3.118;2022-07-03T13:37:39;1.90;;;0.50;;
18023;SDS011;9137;50.960;3.118;2022-07-03T13:40:06;2.20;;;0.60;;
18023;SDS011;9137;50.960;3.118;2022-07-03T13:42:35;0.80;;;0.28;;
18023;SDS011;9137;50.960;3.118;2022-07-03T13:45:02;1.00;;;0.50;;
18023;SDS011;9137;50.960;3.118;2022-07-03T13:47:29;1.37;;;0.30;;
18023;SDS011;9137;50.960;3.118;2022-07-03T13:49:56;1.20;;;0.57;;
18023;SDS011;9137;50.960;3.118;2022-07-03T13:52:23;1.15;;;0.52;;
18023;SDS011;9137;50.960;3.118;2022-07-03T13:54:50;1.10;;;0.30;;
18023;SDS011;9137;50.960;3.118;2022-07-03T13:57:17;0.63;;;0.40;;
18023;SDS011;9137;50.960;3.118;2022-07-03T13:59:46;2.13;;;0.40;;
18023;SDS011;9137;50.960;3.118;2022-07-03T14:02:13;3.38;;;0.50;;
18023;SDS011;9137;50.960;3.118;2022-07-03T14:04:40;1.75;;;0.40;;
18023;SDS011;9137;50.960;3.118;2022-07-03T14:07:07;1.75;;;0.47;;
18023;SDS011;9137;50.960;3.118;2022-07-03T14:09:34;1.50;;;0.70;;
18023;SDS011;9137;50.960;3.118;2022-07-03T14:12:00;1.60;;;0.30;;
18023;SDS011;9137;50.960;3.118;2022-07-03T14:14:27;2.30;;;0.50;;
18023;SDS011;9137;50.960;3.118;2022-07-03T14:16:56;1.25;;;0.43;;
18023;SDS011;9137;50.960;3.118;2022-07-03T14:19:22;1.53;;;0.67;;
18023;SDS011;9137;50.960;3.118;2022-07-03T14:21:49;2.15;;;0.43;;
18023;SDS011;9137;50.960;3.118;2022-07-03T14:24:16;1.20;;;0.47;;
18023;SDS011;9137;50.960;3.118;2022-07-03T14:26:43;1.83;;;0.43;;
18023;SDS011;9137;50.960;3.118;2022-07-03T14:29:27;2.05;;;0.52;;
18023;SDS011;9137;50.960;3.118;2022-07-03T14:32:13;2.42;;;0.47;;
18023;SDS011;9137;50.960;3.118;2022-07-03T14:34:55;1.40;;;0.53;;
18023;SDS011;9137;50.960;3.118;2022-07-03T14:37:22;1.95;;;0.77;;
18023;SDS011;9137;50.960;3.118;2022-07-03T14:39:49;1.65;;;0.50;;
18023;SDS011;9137;50.960;3.118;2022-07-03T14:42:17;2.90;;;0.57;;
18023;SDS011;9137;50.960;3.118;2022-07-03T14:44:44;1.58;;;0.70;;
18023;SDS011;9137;50.960;3.118;2022-07-03T14:47:12;1.98;;;0.52;;
18023;SDS011;9137;50.960;3.118;2022-07-03T14:49:40;3.33;;;0.90;;
18023;SDS011;9137;50.960;3.118;2022-07-03T14:52:07;1.25;;;0.50;;
18023;SDS011;9137;50.960;3.118;2022-07-03T14:54:34;1.55;;;0.40;;
18023;SDS011;9137;50.960;3.118;2022-07-03T14:57:02;0.90;;;0.40;;
18023;SDS011;9137;50.960;3.118;2022-07-03T14:59:38;2.63;;;0.70;;
18023;SDS011;9137;50.960;3.118;2022-07-03T15:02:17;1.48;;;0.55;;
18023;SDS011;9137;50.960;3.118;2022-07-03T15:04:51;2.08;;;0.50;;
18023;SDS011;9137;50.960;3.118;2022-07-03T15:07:28;2.60;;;0.50;;
18023;SDS011;9137;50.960;3.118;2022-07-03T15:10:02;3.53;;;0.70;;
18023;SDS011;9137;50.960;3.118;2022-07-03T15:12:31;1.70;;;0.55;;
18023;SDS011;9137;50.960;3.118;2022-07-03T15:15:00;2.05;;;0.60;;
18023;SDS011;9137;50.960;3.118;2022-07-03T15:17:29;1.27;;;0.40;;
18023;SDS011;9137;50.960;3.118;2022-07-03T15:19:59;1.25;;;0.55;;
18023;SDS011;9137;50.960;3.118;2022-07-03T15:22:27;3.35;;;0.63;;
18023;SDS011;9137;50.960;3.118;2022-07-03T15:24:57;2.75;;;0.60;;